sensor_id;sensor_type;location;lat;lon;timestamp;P1;durP1;ratioP1;P2;durP2;ratioP2
4986;SDS011;12674;51.500;7.552;2023-11-21T00:00:21;17.00;;;7.80;;
4986;SDS011;12674;51.500;7.552;2023-11-21T00:02:24;16.73;;;6.70;;
4986;SDS011;12674;51.500;7.552;2023-11-21T00:04:28;9.83;;;6.53;;
4986;SDS011;12674;51.500;7.552;2023-11-21T00:06:31;21.73;;;8.00;;
4986;SDS011;12674;51.500;7.552;2023-11-21T00:08:35;11.33;;;7.30;;
4986;SDS011;12674;51.500;7.552;2023-11-21T00:10:38;18.87;;;8.03;;
4986;SDS011;12674;51.500;7.552;2023-11-21T00:12:41;18.17;;;7.57;;
4986;SDS011;12674;51.500;7.552;2023-11-21T00:14:45;15.73;;;8.10;;
4986;SDS011;12674;51.500;7.552;2023-11-21T00:16:50;14.77;;;8.03;;
4986;SDS011;12674;51.500;7.552;2023-11-21T00:18:55;17.23;;;7.70;;
4986;SDS011;12674;51.500;7.552;2023-11-21T00:20:58;15.50;;;8.33;;
4986;SDS011;12674;51.500;7.552;2023-11-21T00:23:01;11.97;;;7.73;;
4986;SDS011;12674;51.500;7.552;2023-11-21T00:25:05;16.57;;;7.67;;
4986;SDS011;12674;51.500;7.552;2023-11-21T00:27:10;13.83;;;7.77;;
4986;SDS011;12674;51.500;7.552;2023-11-21T00:29:13;21.07;;;9.20;;
4986;SDS011;12674;51.500;7.552;2023-11-21T00:31:20;15.07;;;8.40;;
4986;SDS011;12674;51.500;7.552;2023-11-21T00:33:23;22.50;;;9.93;;
4986;SDS011;12674;51.500;7.552;2023-11-21T00:35:26;13.93;;;8.07;;
4986;SDS011;12674;51.500;7.552;2023-11-21T00:37:29;17.67;;;9.50;;
4986;SDS011;12674;51.500;7.552;2023-11-21T00:39:33;17.23;;;8.63;;
4986;SDS011;12674;51.500;7.552;2023-11-21T00:41:36;17.27;;;8.97;;
4986;SDS011;12674;51.500;7.552;2023-11-21T00:43:39;13.43;;;8.10;;
4986;SDS011;12674;51.500;7.552;2023-11-21T00:45:42;12.97;;;8.37;;
4986;SDS011;12674;51.500;7.552;2023-11-21T00:47:48;20.10;;;8.53;;
4986;SDS011;12674;51.500;7.552;2023-11-21T00:49:50;19.80;;;8.87;;
4986;SDS011;12674;51.500;7.552;2023-11-21T00:51:53;21.27;;;9.10;;
4986;SDS011;12674;51.500;7.552;2023-11-21T00:53:56;17.30;;;8.80;;
4986;SDS011;12674;51.500;7.552;2023-11-21T00:56:00;14.63;;;7.80;;
4986;SDS011;12674;51.500;7.552;2023-11-21T00:58:04;16.03;;;8.10;;
4986;SDS011;12674;51.500;7.552;2023-11-21T01:00:08;21.07;;;9.10;;
4986;SDS011;12674;51.500;7.552;2023-11-21T01:02:15;18.40;;;8.63;;
4986;SDS011;12674;51.500;7.552;2023-11-21T01:04:19;15.47;;;8.57;;
4986;SDS011;12674;51.500;7.552;2023-11-21T01:06:23;13.23;;;7.83;;
4986;SDS011;12674;51.500;7.552;2023-11-21T01:08:26;15.23;;;8.53;;
4986;SDS011;12674;51.500;7.552;2023-11-21T01:10:30;21.80;;;9.07;;
4986;SDS011;12674;51.500;7.552;2023-11-21T01:12:34;19.07;;;8.30;;
4986;SDS011;12674;51.500;7.552;2023-11-21T01:14:37;16.80;;;7.27;;
4986;SDS011;12674;51.500;7.552;2023-11-21T01:16:40;15.30;;;7.77;;
4986;SDS011;12674;51.500;7.552;2023-11-21T01:18:43;15.40;;;7.60;;
4986;SDS011;12674;51.500;7.552;2023-11-21T01:20:48;15.30;;;8.97;;
4986;SDS011;12674;51.500;7.552;2023-11-21T01:22:51;18.83;;;8.80;;
4986;SDS011;12674;51.500;7.552;2023-11-21T01:24:55;16.20;;;7.93;;
4986;SDS011;12674;51.500;7.552;2023-11-21T01:26:58;23.93;;;8.53;;
4986;SDS011;12674;51.500;7.552;2023-11-21T01:29:01;19.30;;;8.10;;
4986;SDS011;12674;51.500;7.552;2023-11-21T01:31:04;16.43;;;8.80;;
4986;SDS011;12674;51.500;7.552;2023-11-21T01:33:08;22.23;;;9.27;;
4986;SDS011;12674;51.500;7.552;2023-11-21T01:35:11;12.23;;;7.90;;
4986;SDS011;12674;51.500;7.552;2023-11-21T01:37:16;18.50;;;8.73;;
4986;SDS011;12674;51.500;7.552;2023-11-21T01:39:19;19.47;;;7.53;;
4986;SDS011;12674;51.500;7.552;2023-11-21T01:41:25;14.10;;;8.33;;
4986;SDS011;12674;51.500;7.552;2023-11-21T01:43:30;13.53;;;8.30;;
4986;SDS011;12674;51.500;7.552;2023-11-21T01:45:34;20.90;;;8.70;;
4986;SDS011;12674;51.500;7.552;2023-11-21T01:47:36;18.40;;;8.47;;
4986;SDS011;12674;51.500;7.552;2023-11-21T01:49:42;14.77;;;8.10;;
4986;SDS011;12674;51.500;7.552;2023-11-21T01:51:47;15.13;;;8.17;;
4986;SDS011;12674;51.500;7.552;2023-11-21T01:53:52;24.57;;;7.00;;
4986;SDS011;12674;51.500;7.552;2023-11-21T01:55:55;17.77;;;7.77;;
4986;SDS011;12674;51.500;7.552;2023-11-21T01:58:00;21.00;;;8.03;;
4986;SDS011;12674;51.500;7.552;2023-11-21T02:00:04;16.80;;;7.77;;
4986;SDS011;12674;51.500;7.552;2023-11-21T02:02:17;14.63;;;8.30;;
4986;SDS011;12674;51.500;7.552;2023-11-21T02:04:20;13.23;;;7.57;;
4986;SDS011;12674;51.500;7.552;2023-11-21T02:06:23;16.50;;;8.97;;
4986;SDS011;12674;51.500;7.552;2023-11-21T02:08:27;21.67;;;8.50;;
4986;SDS011;12674;51.500;7.552;2023-11-21T02:10:31;19.37;;;8.87;;
4986;SDS011;12674;51.500;7.552;2023-11-21T02:12:34;20.43;;;8.50;;
4986;SDS011;12674;51.500;7.552;2023-11-21T02:14:38;18.93;;;7.43;;
4986;SDS011;12674;51.500;7.552;2023-11-21T02:16:41;15.23;;;8.60;;
4986;SDS011;12674;51.500;7.552;2023-11-21T02:18:49;13.77;;;8.37;;
4986;SDS011;12674;51.500;7.552;2023-11-21T02:20:52;18.07;;;8.30;;
4986;SDS011;12674;51.500;7.552;2023-11-21T02:22:57;18.80;;;8.50;;
4986;SDS011;12674;51.500;7.552;2023-11-21T02:25:01;14.63;;;8.37;;
4986;SDS011;12674;51.500;7.552;2023-11-21T02:27:04;21.60;;;9.40;;
4986;SDS011;12674;51.500;7.552;2023-11-21T02:29:08;14.50;;;7.90;;
4986;SDS011;12674;51.500;7.552;2023-11-21T02:31:14;20.30;;;8.37;;
4986;SDS011;12674;51.500;7.552;2023-11-21T02:33:17;27.40;;;10.57;;
4986;SDS011;12674;51.500;7.552;2023-11-21T02:35:21;15.93;;;8.60;;
4986;SDS011;12674;51.500;7.552;2023-11-21T02:37:24;23.43;;;8.73;;
4986;SDS011;12674;51.500;7.552;2023-11-21T02:39:28;15.60;;;9.03;;
4986;SDS011;12674;51.500;7.552;2023-11-21T02:41:31;12.93;;;8.40;;
4986;SDS011;12674;51.500;7.552;2023-11-21T02:43:34;20.60;;;8.60;;
4986;SDS011;12674;51.500;7.552;2023-11-21T02:45:37;12.23;;;8.30;;
4986;SDS011;12674;51.500;7.552;2023-11-21T02:47:39;21.60;;;9.50;;
4986;SDS011;12674;51.500;7.552;2023-11-21T02:49:42;17.77;;;9.07;;
4986;SDS011;12674;51.500;7.552;2023-11-21T02:51:44;17.50;;;8.77;;
4986;SDS011;12674;51.500;7.552;2023-11-21T02:53:47;19.83;;;9.80;;
4986;SDS011;12674;51.500;7.552;2023-11-21T02:55:50;21.80;;;9.97;;
4986;SDS011;12674;51.500;7.552;2023-11-21T02:57:53;21.30;;;9.63;;
4986;SDS011;12674;51.500;7.552;2023-11-21T02:59:58;14.70;;;9.83;;
4986;SDS011;12674;51.500;7.552;2023-11-21T03:02:01;20.90;;;10.07;;
4986;SDS011;12674;51.500;7.552;2023-11-21T03:04:05;24.50;;;10.80;;
4986;SDS011;12674;51.500;7.552;2023-11-21T03:06:09;20.90;;;10.40;;
4986;SDS011;12674;51.500;7.552;2023-11-21T03:08:13;23.07;;;10.43;;
4986;SDS011;12674;51.500;7.552;2023-11-21T03:10:18;18.30;;;8.33;;
4986;SDS011;12674;51.500;7.552;2023-11-21T03:12:23;14.93;;;9.10;;
4986;SDS011;12674;51.500;7.552;2023-11-21T03:14:27;18.77;;;9.70;;
4986;SDS011;12674;51.500;7.552;2023-11-21T03:16:31;15.80;;;9.20;;
4986;SDS011;12674;51.500;7.552;2023-11-21T03:18:35;18.87;;;8.73;;
4986;SDS011;12674;51.500;7.552;2023-11-21T03:20:39;24.47;;;7.83;;
4986;SDS011;12674;51.500;7.552;2023-11-21T03:22:42;17.53;;;8.87;;
4986;SDS011;12674;51.500;7.552;2023-11-21T03:24:46;18.27;;;8.70;;
4986;SDS011;12674;51.500;7.552;2023-11-21T03:26:50;22.50;;;9.50;;
4986;SDS011;12674;51.500;7.552;2023-11-21T03:28:55;16.13;;;8.73;;
4986;SDS011;12674;51.500;7.552;2023-11-21T03:30:58;18.67;;;9.20;;
4986;SDS011;12674;51.500;7.552;2023-11-21T03:33:01;21.60;;;10.03;;
4986;SDS011;12674;51.500;7.552;2023-11-21T03:35:04;17.77;;;10.67;;
4986;SDS011;12674;51.500;7.552;2023-11-21T03:37:08;27.90;;;10.33;;
4986;SDS011;12674;51.500;7.552;2023-11-21T03:39:11;20.20;;;10.00;;
4986;SDS011;12674;51.500;7.552;2023-11-21T03:41:14;20.60;;;10.13;;
4986;SDS011;12674;51.500;7.552;2023-11-21T03:43:17;20.40;;;10.43;;
4986;SDS011;12674;51.500;7.552;2023-11-21T03:45:21;20.80;;;10.70;;
4986;SDS011;12674;51.500;7.552;2023-11-21T03:47:25;17.53;;;10.37;;
4986;SDS011;12674;51.500;7.552;2023-11-21T03:49:27;33.73;;;11.67;;
4986;SDS011;12674;51.500;7.552;2023-11-21T03:51:32;26.03;;;11.43;;
4986;SDS011;12674;51.500;7.552;2023-11-21T03:53:37;18.50;;;10.13;;
4986;SDS011;12674;51.500;7.552;2023-11-21T03:55:43;22.70;;;10.80;;
4986;SDS011;12674;51.500;7.552;2023-11-21T03:57:46;17.10;;;9.63;;
4986;SDS011;12674;51.500;7.552;2023-11-21T03:59:49;21.60;;;11.10;;
4986;SDS011;12674;51.500;7.552;2023-11-21T04:01:56;23.23;;;11.20;;
4986;SDS011;12674;51.500;7.552;2023-11-21T04:04:00;20.13;;;10.43;;
4986;SDS011;12674;51.500;7.552;2023-11-21T04:06:03;25.57;;;11.90;;
4986;SDS011;12674;51.500;7.552;2023-11-21T04:08:07;17.40;;;10.10;;
4986;SDS011;12674;51.500;7.552;2023-11-21T04:10:10;15.50;;;9.77;;
4986;SDS011;12674;51.500;7.552;2023-11-21T04:12:14;20.33;;;10.80;;
4986;SDS011;12674;51.500;7.552;2023-11-21T04:14:17;26.30;;;12.03;;
4986;SDS011;12674;51.500;7.552;2023-11-21T04:16:20;30.50;;;11.80;;
4986;SDS011;12674;51.500;7.552;2023-11-21T04:18:25;23.00;;;12.13;;
4986;SDS011;12674;51.500;7.552;2023-11-21T04:20:28;19.30;;;11.80;;
4986;SDS011;12674;51.500;7.552;2023-11-21T04:22:31;21.53;;;10.77;;
4986;SDS011;12674;51.500;7.552;2023-11-21T04:24:33;24.50;;;11.60;;
4986;SDS011;12674;51.500;7.552;2023-11-21T04:26:36;22.73;;;11.90;;
4986;SDS011;12674;51.500;7.552;2023-11-21T04:28:39;23.20;;;11.50;;
4986;SDS011;12674;51.500;7.552;2023-11-21T04:30:42;26.23;;;11.97;;
4986;SDS011;12674;51.500;7.552;2023-11-21T04:32:44;29.20;;;13.50;;
4986;SDS011;12674;51.500;7.552;2023-11-21T04:34:48;24.77;;;11.70;;
4986;SDS011;12674;51.500;7.552;2023-11-21T04:36:50;27.97;;;12.73;;
4986;SDS011;12674;51.500;7.552;2023-11-21T04:38:54;29.73;;;12.57;;
4986;SDS011;12674;51.500;7.552;2023-11-21T04:40:58;17.70;;;10.87;;
4986;SDS011;12674;51.500;7.552;2023-11-21T04:43:04;24.20;;;12.67;;
4986;SDS011;12674;51.500;7.552;2023-11-21T04:45:07;26.93;;;11.97;;
4986;SDS011;12674;51.500;7.552;2023-11-21T04:47:14;21.10;;;12.07;;
4986;SDS011;12674;51.500;7.552;2023-11-21T04:49:17;22.23;;;11.63;;
4986;SDS011;12674;51.500;7.552;2023-11-21T04:51:21;32.40;;;12.30;;
4986;SDS011;12674;51.500;7.552;2023-11-21T04:53:24;36.13;;;14.17;;
4986;SDS011;12674;51.500;7.552;2023-11-21T04:55:26;24.40;;;12.53;;
4986;SDS011;12674;51.500;7.552;2023-11-21T04:57:30;24.47;;;13.60;;
4986;SDS011;12674;51.500;7.552;2023-11-21T04:59:33;26.80;;;12.80;;
4986;SDS011;12674;51.500;7.552;2023-11-21T05:01:36;25.43;;;12.43;;
4986;SDS011;12674;51.500;7.552;2023-11-21T05:03:40;29.13;;;12.77;;
4986;SDS011;12674;51.500;7.552;2023-11-21T05:05:43;26.23;;;13.37;;
4986;SDS011;12674;51.500;7.552;2023-11-21T05:07:48;32.00;;;13.00;;
4986;SDS011;12674;51.500;7.552;2023-11-21T05:09:51;24.17;;;12.40;;
4986;SDS011;12674;51.500;7.552;2023-11-21T05:11:54;26.33;;;13.80;;
4986;SDS011;12674;51.500;7.552;2023-11-21T05:13:57;33.73;;;13.43;;
4986;SDS011;12674;51.500;7.552;2023-11-21T05:16:03;28.63;;;13.03;;
4986;SDS011;12674;51.500;7.552;2023-11-21T05:18:07;29.33;;;14.20;;
4986;SDS011;12674;51.500;7.552;2023-11-21T05:20:12;24.30;;;12.70;;
4986;SDS011;12674;51.500;7.552;2023-11-21T05:22:16;23.70;;;13.70;;
4986;SDS011;12674;51.500;7.552;2023-11-21T05:24:20;25.57;;;12.47;;
4986;SDS011;12674;51.500;7.552;2023-11-21T05:26:24;27.77;;;13.50;;
4986;SDS011;12674;51.500;7.552;2023-11-21T05:28:27;27.00;;;13.80;;
4986;SDS011;12674;51.500;7.552;2023-11-21T05:30:30;27.90;;;12.97;;
4986;SDS011;12674;51.500;7.552;2023-11-21T05:32:33;26.30;;;12.50;;
4986;SDS011;12674;51.500;7.552;2023-11-21T05:34:36;25.83;;;11.60;;
4986;SDS011;12674;51.500;7.552;2023-11-21T05:36:39;22.60;;;11.50;;
4986;SDS011;12674;51.500;7.552;2023-11-21T05:38:42;30.93;;;11.93;;
4986;SDS011;12674;51.500;7.552;2023-11-21T05:40:47;23.73;;;11.43;;
4986;SDS011;12674;51.500;7.552;2023-11-21T05:42:50;24.63;;;12.67;;
4986;SDS011;12674;51.500;7.552;2023-11-21T05:44:54;22.97;;;12.30;;
4986;SDS011;12674;51.500;7.552;2023-11-21T05:47:00;24.20;;;11.77;;
4986;SDS011;12674;51.500;7.552;2023-11-21T05:49:04;35.83;;;13.03;;
4986;SDS011;12674;51.500;7.552;2023-11-21T05:51:07;22.50;;;12.87;;
4986;SDS011;12674;51.500;7.552;2023-11-21T05:53:10;25.57;;;12.43;;
4986;SDS011;12674;51.500;7.552;2023-11-21T05:55:13;28.50;;;13.30;;
4986;SDS011;12674;51.500;7.552;2023-11-21T05:57:17;24.80;;;13.47;;
4986;SDS011;12674;51.500;7.552;2023-11-21T05:59:20;22.57;;;12.60;;
4986;SDS011;12674;51.500;7.552;2023-11-21T06:01:24;23.90;;;13.40;;
4986;SDS011;12674;51.500;7.552;2023-11-21T06:03:29;22.50;;;12.00;;
4986;SDS011;12674;51.500;7.552;2023-11-21T06:05:32;27.33;;;13.47;;
4986;SDS011;12674;51.500;7.552;2023-11-21T06:07:36;26.80;;;13.10;;
4986;SDS011;12674;51.500;7.552;2023-11-21T06:09:40;22.73;;;11.90;;
4986;SDS011;12674;51.500;7.552;2023-11-21T06:11:43;21.57;;;12.20;;
4986;SDS011;12674;51.500;7.552;2023-11-21T06:13:47;21.57;;;12.40;;
4986;SDS011;12674;51.500;7.552;2023-11-21T06:15:51;26.77;;;13.30;;
4986;SDS011;12674;51.500;7.552;2023-11-21T06:17:54;29.27;;;12.40;;
4986;SDS011;12674;51.500;7.552;2023-11-21T06:19:57;24.03;;;13.37;;
4986;SDS011;12674;51.500;7.552;2023-11-21T06:22:00;27.87;;;12.77;;
4986;SDS011;12674;51.500;7.552;2023-11-21T06:24:04;24.20;;;13.00;;
4986;SDS011;12674;51.500;7.552;2023-11-21T06:26:08;27.83;;;12.90;;
4986;SDS011;12674;51.500;7.552;2023-11-21T06:28:11;29.40;;;13.40;;
4986;SDS011;12674;51.500;7.552;2023-11-21T06:30:18;30.77;;;13.57;;
4986;SDS011;12674;51.500;7.552;2023-11-21T06:32:23;27.33;;;14.10;;
4986;SDS011;12674;51.500;7.552;2023-11-21T06:34:28;29.13;;;13.93;;
4986;SDS011;12674;51.500;7.552;2023-11-21T06:36:31;32.53;;;13.93;;
4986;SDS011;12674;51.500;7.552;2023-11-21T06:38:35;24.40;;;14.77;;
4986;SDS011;12674;51.500;7.552;2023-11-21T06:40:37;22.80;;;13.53;;
4986;SDS011;12674;51.500;7.552;2023-11-21T06:42:40;39.10;;;13.37;;
4986;SDS011;12674;51.500;7.552;2023-11-21T06:44:42;23.40;;;14.23;;
4986;SDS011;12674;51.500;7.552;2023-11-21T06:46:47;26.70;;;14.87;;
4986;SDS011;12674;51.500;7.552;2023-11-21T06:48:50;23.63;;;14.40;;
4986;SDS011;12674;51.500;7.552;2023-11-21T06:50:53;34.00;;;14.37;;
4986;SDS011;12674;51.500;7.552;2023-11-21T06:52:56;29.13;;;15.63;;
4986;SDS011;12674;51.500;7.552;2023-11-21T06:54:59;29.17;;;13.87;;
4986;SDS011;12674;51.500;7.552;2023-11-21T06:57:02;24.83;;;13.17;;
4986;SDS011;12674;51.500;7.552;2023-11-21T06:59:05;21.70;;;14.03;;
4986;SDS011;12674;51.500;7.552;2023-11-21T07:01:08;23.77;;;14.47;;
4986;SDS011;12674;51.500;7.552;2023-11-21T07:03:12;26.57;;;15.17;;
4986;SDS011;12674;51.500;7.552;2023-11-21T07:05:16;32.27;;;15.50;;
4986;SDS011;12674;51.500;7.552;2023-11-21T07:07:23;24.50;;;14.40;;
4986;SDS011;12674;51.500;7.552;2023-11-21T07:09:27;35.93;;;14.63;;
4986;SDS011;12674;51.500;7.552;2023-11-21T07:11:29;21.80;;;13.50;;
4986;SDS011;12674;51.500;7.552;2023-11-21T07:13:34;32.40;;;15.50;;
4986;SDS011;12674;51.500;7.552;2023-11-21T07:15:37;31.43;;;13.47;;
4986;SDS011;12674;51.500;7.552;2023-11-21T07:17:41;25.43;;;14.00;;
4986;SDS011;12674;51.500;7.552;2023-11-21T07:19:47;25.70;;;15.03;;
4986;SDS011;12674;51.500;7.552;2023-11-21T07:21:49;30.17;;;14.17;;
4986;SDS011;12674;51.500;7.552;2023-11-21T07:23:55;27.30;;;13.77;;
4986;SDS011;12674;51.500;7.552;2023-11-21T07:26:01;29.23;;;15.50;;
4986;SDS011;12674;51.500;7.552;2023-11-21T07:28:10;26.90;;;14.27;;
4986;SDS011;12674;51.500;7.552;2023-11-21T07:30:15;31.30;;;13.97;;
4986;SDS011;12674;51.500;7.552;2023-11-21T07:32:19;24.23;;;13.87;;
4986;SDS011;12674;51.500;7.552;2023-11-21T07:34:22;26.17;;;12.43;;
4986;SDS011;12674;51.500;7.552;2023-11-21T07:36:26;30.10;;;14.87;;
4986;SDS011;12674;51.500;7.552;2023-11-21T07:38:29;45.13;;;15.00;;
4986;SDS011;12674;51.500;7.552;2023-11-21T07:40:32;26.53;;;13.43;;
4986;SDS011;12674;51.500;7.552;2023-11-21T07:42:34;34.63;;;15.30;;
4986;SDS011;12674;51.500;7.552;2023-11-21T07:44:37;25.33;;;13.17;;
4986;SDS011;12674;51.500;7.552;2023-11-21T07:46:40;31.23;;;14.17;;
4986;SDS011;12674;51.500;7.552;2023-11-21T07:48:42;25.67;;;14.60;;
4986;SDS011;12674;51.500;7.552;2023-11-21T07:50:47;64.10;;;17.07;;
4986;SDS011;12674;51.500;7.552;2023-11-21T07:52:51;71.90;;;15.30;;
4986;SDS011;12674;51.500;7.552;2023-11-21T07:54:56;36.70;;;16.10;;
4986;SDS011;12674;51.500;7.552;2023-11-21T07:56:59;28.90;;;14.70;;
4986;SDS011;12674;51.500;7.552;2023-11-21T07:59:02;28.10;;;14.00;;
4986;SDS011;12674;51.500;7.552;2023-11-21T08:01:06;36.27;;;16.53;;
4986;SDS011;12674;51.500;7.552;2023-11-21T08:03:09;28.77;;;14.87;;
4986;SDS011;12674;51.500;7.552;2023-11-21T08:05:13;29.50;;;14.57;;
4986;SDS011;12674;51.500;7.552;2023-11-21T08:07:28;33.70;;;16.43;;
4986;SDS011;12674;51.500;7.552;2023-11-21T08:09:34;28.20;;;16.10;;
4986;SDS011;12674;51.500;7.552;2023-11-21T08:11:36;33.00;;;17.57;;
4986;SDS011;12674;51.500;7.552;2023-11-21T08:13:40;28.23;;;15.63;;
4986;SDS011;12674;51.500;7.552;2023-11-21T08:15:43;27.90;;;14.30;;
4986;SDS011;12674;51.500;7.552;2023-11-21T08:17:48;35.10;;;16.63;;
4986;SDS011;12674;51.500;7.552;2023-11-21T08:19:51;33.70;;;15.93;;
4986;SDS011;12674;51.500;7.552;2023-11-21T08:21:54;25.50;;;15.50;;
4986;SDS011;12674;51.500;7.552;2023-11-21T08:23:57;42.63;;;16.53;;
4986;SDS011;12674;51.500;7.552;2023-11-21T08:26:04;30.10;;;15.70;;
4986;SDS011;12674;51.500;7.552;2023-11-21T08:28:08;32.60;;;17.77;;
4986;SDS011;12674;51.500;7.552;2023-11-21T08:30:11;32.43;;;18.47;;
4986;SDS011;12674;51.500;7.552;2023-11-21T08:32:15;45.87;;;19.40;;
4986;SDS011;12674;51.500;7.552;2023-11-21T08:34:18;32.80;;;17.57;;
4986;SDS011;12674;51.500;7.552;2023-11-21T08:36:21;35.67;;;18.10;;
4986;SDS011;12674;51.500;7.552;2023-11-21T08:38:25;38.17;;;18.10;;
4986;SDS011;12674;51.500;7.552;2023-11-21T08:40:30;37.70;;;17.87;;
4986;SDS011;12674;51.500;7.552;2023-11-21T08:42:35;31.87;;;17.57;;
4986;SDS011;12674;51.500;7.552;2023-11-21T08:44:39;30.80;;;16.63;;
4986;SDS011;12674;51.500;7.552;2023-11-21T08:46:42;37.27;;;18.10;;
4986;SDS011;12674;51.500;7.552;2023-11-21T08:48:46;30.47;;;17.13;;
4986;SDS011;12674;51.500;7.552;2023-11-21T08:50:50;35.80;;;15.93;;
4986;SDS011;12674;51.500;7.552;2023-11-21T08:52:53;50.43;;;18.10;;
4986;SDS011;12674;51.500;7.552;2023-11-21T08:54:56;47.80;;;20.63;;
4986;SDS011;12674;51.500;7.552;2023-11-21T08:57:04;44.40;;;16.80;;
4986;SDS011;12674;51.500;7.552;2023-11-21T08:59:08;32.03;;;16.80;;
4986;SDS011;12674;51.500;7.552;2023-11-21T09:01:11;34.50;;;16.77;;
4986;SDS011;12674;51.500;7.552;2023-11-21T09:03:14;36.23;;;16.93;;
4986;SDS011;12674;51.500;7.552;2023-11-21T09:05:17;46.47;;;19.33;;
4986;SDS011;12674;51.500;7.552;2023-11-21T09:07:22;47.37;;;21.47;;
4986;SDS011;12674;51.500;7.552;2023-11-21T09:09:25;94.93;;;25.07;;
4986;SDS011;12674;51.500;7.552;2023-11-21T09:11:28;35.30;;;17.83;;
4986;SDS011;12674;51.500;7.552;2023-11-21T09:13:34;53.10;;;17.70;;
4986;SDS011;12674;51.500;7.552;2023-11-21T09:15:39;41.97;;;17.40;;
4986;SDS011;12674;51.500;7.552;2023-11-21T09:17:42;36.70;;;14.97;;
4986;SDS011;12674;51.500;7.552;2023-11-21T09:19:46;39.93;;;16.27;;
4986;SDS011;12674;51.500;7.552;2023-11-21T09:21:53;40.17;;;17.80;;
4986;SDS011;12674;51.500;7.552;2023-11-21T09:23:56;79.50;;;18.87;;
4986;SDS011;12674;51.500;7.552;2023-11-21T09:25:59;35.23;;;17.80;;
4986;SDS011;12674;51.500;7.552;2023-11-21T09:28:02;80.37;;;17.70;;
4986;SDS011;12674;51.500;7.552;2023-11-21T09:30:09;37.80;;;16.73;;
4986;SDS011;12674;51.500;7.552;2023-11-21T09:32:17;39.67;;;18.07;;
4986;SDS011;12674;51.500;7.552;2023-11-21T09:34:20;34.17;;;17.00;;
4986;SDS011;12674;51.500;7.552;2023-11-21T09:36:23;32.37;;;16.23;;
4986;SDS011;12674;51.500;7.552;2023-11-21T09:38:29;42.20;;;17.33;;
4986;SDS011;12674;51.500;7.552;2023-11-21T09:40:32;44.57;;;19.53;;
4986;SDS011;12674;51.500;7.552;2023-11-21T09:42:36;42.43;;;19.27;;
4986;SDS011;12674;51.500;7.552;2023-11-21T09:44:45;39.30;;;18.60;;
4986;SDS011;12674;51.500;7.552;2023-11-21T09:46:51;40.30;;;18.30;;
4986;SDS011;12674;51.500;7.552;2023-11-21T09:48:57;40.43;;;18.17;;
4986;SDS011;12674;51.500;7.552;2023-11-21T09:51:06;60.83;;;19.90;;
4986;SDS011;12674;51.500;7.552;2023-11-21T09:53:16;83.37;;;21.70;;
4986;SDS011;12674;51.500;7.552;2023-11-21T09:55:22;42.10;;;19.47;;
4986;SDS011;12674;51.500;7.552;2023-11-21T09:57:30;55.63;;;22.10;;
4986;SDS011;12674;51.500;7.552;2023-11-21T09:59:33;53.27;;;21.50;;
4986;SDS011;12674;51.500;7.552;2023-11-21T10:01:37;62.03;;;24.00;;
4986;SDS011;12674;51.500;7.552;2023-11-21T10:03:41;80.10;;;24.57;;
4986;SDS011;12674;51.500;7.552;2023-11-21T10:05:46;99.03;;;25.20;;
4986;SDS011;12674;51.500;7.552;2023-11-21T10:07:52;67.43;;;26.93;;
4986;SDS011;12674;51.500;7.552;2023-11-21T10:09:55;58.03;;;26.50;;
4986;SDS011;12674;51.500;7.552;2023-11-21T10:11:58;63.33;;;25.80;;
4986;SDS011;12674;51.500;7.552;2023-11-21T10:14:02;64.50;;;26.77;;
4986;SDS011;12674;51.500;7.552;2023-11-21T10:16:06;68.77;;;27.80;;
4986;SDS011;12674;51.500;7.552;2023-11-21T10:18:10;54.60;;;25.17;;
4986;SDS011;12674;51.500;7.552;2023-11-21T10:20:14;72.57;;;27.27;;
4986;SDS011;12674;51.500;7.552;2023-11-21T10:22:18;69.20;;;26.00;;
4986;SDS011;12674;51.500;7.552;2023-11-21T10:24:23;89.87;;;27.00;;
4986;SDS011;12674;51.500;7.552;2023-11-21T10:26:26;86.40;;;27.30;;
4986;SDS011;12674;51.500;7.552;2023-11-21T10:28:40;115.47;;;29.20;;
4986;SDS011;12674;51.500;7.552;2023-11-21T10:30:44;80.57;;;29.20;;
4986;SDS011;12674;51.500;7.552;2023-11-21T10:32:47;64.10;;;26.70;;
4986;SDS011;12674;51.500;7.552;2023-11-21T10:34:55;68.77;;;27.07;;
4986;SDS011;12674;51.500;7.552;2023-11-21T10:36:59;67.03;;;27.03;;
4986;SDS011;12674;51.500;7.552;2023-11-21T10:39:16;70.33;;;27.27;;
4986;SDS011;12674;51.500;7.552;2023-11-21T10:41:20;58.73;;;25.30;;
4986;SDS011;12674;51.500;7.552;2023-11-21T10:43:24;58.43;;;25.37;;
4986;SDS011;12674;51.500;7.552;2023-11-21T10:45:28;69.47;;;26.77;;
4986;SDS011;12674;51.500;7.552;2023-11-21T10:47:31;72.73;;;26.00;;
4986;SDS011;12674;51.500;7.552;2023-11-21T10:49:36;78.47;;;26.03;;
4986;SDS011;12674;51.500;7.552;2023-11-21T10:51:43;57.13;;;27.20;;
4986;SDS011;12674;51.500;7.552;2023-11-21T10:53:46;48.07;;;24.80;;
4986;SDS011;12674;51.500;7.552;2023-11-21T10:55:59;62.07;;;26.13;;
4986;SDS011;12674;51.500;7.552;2023-11-21T10:58:04;59.30;;;25.00;;
4986;SDS011;12674;51.500;7.552;2023-11-21T11:00:07;78.67;;;27.17;;
4986;SDS011;12674;51.500;7.552;2023-11-21T11:02:18;64.40;;;24.53;;
4986;SDS011;12674;51.500;7.552;2023-11-21T11:04:27;79.60;;;23.60;;
4986;SDS011;12674;51.500;7.552;2023-11-21T11:06:30;61.17;;;25.23;;
4986;SDS011;12674;51.500;7.552;2023-11-21T11:08:34;68.20;;;25.27;;
4986;SDS011;12674;51.500;7.552;2023-11-21T11:10:39;68.57;;;25.57;;
4986;SDS011;12674;51.500;7.552;2023-11-21T11:12:43;63.80;;;24.20;;
4986;SDS011;12674;51.500;7.552;2023-11-21T11:14:48;60.20;;;21.80;;
4986;SDS011;12674;51.500;7.552;2023-11-21T11:16:53;51.90;;;24.00;;
4986;SDS011;12674;51.500;7.552;2023-11-21T11:18:57;56.97;;;23.70;;
4986;SDS011;12674;51.500;7.552;2023-11-21T11:21:01;58.07;;;24.17;;
4986;SDS011;12674;51.500;7.552;2023-11-21T11:23:27;71.23;;;26.60;;
4986;SDS011;12674;51.500;7.552;2023-11-21T11:25:42;55.40;;;24.50;;
4986;SDS011;12674;51.500;7.552;2023-11-21T11:27:54;53.57;;;26.07;;
4986;SDS011;12674;51.500;7.552;2023-11-21T11:29:59;64.70;;;26.03;;
4986;SDS011;12674;51.500;7.552;2023-11-21T11:32:11;83.13;;;28.33;;
4986;SDS011;12674;51.500;7.552;2023-11-21T11:34:26;63.23;;;26.50;;
4986;SDS011;12674;51.500;7.552;2023-11-21T11:36:34;62.13;;;25.93;;
4986;SDS011;12674;51.500;7.552;2023-11-21T11:38:44;66.97;;;24.80;;
4986;SDS011;12674;51.500;7.552;2023-11-21T11:40:52;48.80;;;24.97;;
4986;SDS011;12674;51.500;7.552;2023-11-21T11:42:57;72.27;;;26.37;;
4986;SDS011;12674;51.500;7.552;2023-11-21T11:45:01;88.13;;;27.27;;
4986;SDS011;12674;51.500;7.552;2023-11-21T11:47:10;66.73;;;26.20;;
4986;SDS011;12674;51.500;7.552;2023-11-21T11:49:23;75.00;;;24.03;;
4986;SDS011;12674;51.500;7.552;2023-11-21T11:51:26;45.60;;;21.50;;
4986;SDS011;12674;51.500;7.552;2023-11-21T11:53:35;38.13;;;20.90;;
4986;SDS011;12674;51.500;7.552;2023-11-21T11:55:39;43.83;;;20.20;;
4986;SDS011;12674;51.500;7.552;2023-11-21T11:57:42;58.17;;;26.70;;
4986;SDS011;12674;51.500;7.552;2023-11-21T12:02:18;45.53;;;20.90;;
4986;SDS011;12674;51.500;7.552;2023-11-21T12:04:25;50.83;;;21.30;;
4986;SDS011;12674;51.500;7.552;2023-11-21T12:06:36;43.00;;;18.77;;
4986;SDS011;12674;51.500;7.552;2023-11-21T12:08:39;38.20;;;19.80;;
4986;SDS011;12674;51.500;7.552;2023-11-21T12:10:44;39.70;;;20.10;;
4986;SDS011;12674;51.500;7.552;2023-11-21T12:12:48;39.13;;;20.20;;
4986;SDS011;12674;51.500;7.552;2023-11-21T12:14:50;44.50;;;18.90;;
4986;SDS011;12674;51.500;7.552;2023-11-21T12:16:55;36.43;;;16.60;;
4986;SDS011;12674;51.500;7.552;2023-11-21T12:18:58;30.53;;;15.40;;
4986;SDS011;12674;51.500;7.552;2023-11-21T12:21:02;29.53;;;15.90;;
4986;SDS011;12674;51.500;7.552;2023-11-21T12:23:05;27.83;;;14.90;;